Time;durP1;ratioP1;P1;durP2;ratioP2;P2;SDS_P1;SDS_P2;PMS_P1;PMS_P2;Temp;Humidity;BMP_temperature;BMP_pressure;BME280_temperature;BME280_humidity;BME280_pressure;Samples;Min_cycle;Max_cycle;Signal;HPM_P1;HPM_P2
2023/10/14 00:01:14;;;;;;;2.72;0.00;;;14.50;99.90;;;;;;5094462;28;20103;-76
2023/10/14 00:03:41;;;;;;;0.15;0.00;;;14.50;99.90;;;;;;5094333;28;20074;-77
2023/10/14 00:06:10;;;;;;;1.20;0.00;;;14.50;99.90;;;;;;5094098;28;20020;-76
2023/10/14 00:08:55;;;;;;;0.30;0.00;;;14.50;99.90;;;;;;5094221;28;20028;-76
2023/10/14 00:11:21;;;;;;;1.95;0.00;;;14.50;99.90;;;;;;5094164;28;20471;-76
2023/10/14 00:13:55;;;;;;;1.13;0.00;;;14.30;99.90;;;;;;5094115;28;20024;-76
2023/10/14 00:16:30;;;;;;;2.92;0.28;;;14.20;99.90;;;;;;5094007;28;20533;-76
2023/10/14 00:18:57;;;;;;;2.92;0.00;;;14.20;99.90;;;;;;5075839;28;20491;-76
2023/10/14 00:21:23;;;;;;;3.83;0.10;;;14.10;99.90;;;;;;5094072;28;20540;-76
2023/10/14 00:23:51;;;;;;;1.70;0.00;;;14.10;99.90;;;;;;5094473;28;20020;-76
2023/10/14 00:26:17;;;;;;;3.70;0.30;;;14.10;99.90;;;;;;5093691;28;20058;-76
2023/10/14 00:28:45;;;;;;;2.83;0.00;;;14.20;99.90;;;;;;5093820;28;20443;-76
2023/10/14 00:31:17;;;;;;;3.92;0.00;;;13.90;99.90;;;;;;5093790;28;20008;-76
2023/10/14 00:33:45;;;;;;;5.85;0.10;;;13.80;99.90;;;;;;5093843;28;20024;-76
2023/10/14 00:36:13;;;;;;;5.38;0.20;;;13.70;99.90;;;;;;5093059;28;20044;-76
2023/10/14 00:38:39;;;;;;;6.03;0.10;;;13.60;99.90;;;;;;5093818;28;20061;-76
2023/10/14 00:41:08;;;;;;;2.03;0.38;;;13.60;99.90;;;;;;5093660;28;20020;-76
2023/10/14 00:43:34;;;;;;;;;;;13.60;99.90;;;;;;5094081;28;20027;-76
2023/10/14 00:46:01;;;;;;;4.18;0.10;;;13.60;99.90;;;;;;5093524;28;19908;-77
2023/10/14 00:48:27;;;;;;;9.25;0.13;;;13.60;99.90;;;;;;5075361;28;20016;-76
2023/10/14 00:50:58;;;;;;;5.78;0.57;;;13.50;99.90;;;;;;5093537;28;20085;-76
2023/10/14 00:53:27;;;;;;;4.40;0.30;;;13.50;99.90;;;;;;5093617;28;20024;-76
2023/10/14 00:55:54;;;;;;;0.47;0.00;;;13.50;99.90;;;;;;5093325;28;20438;-76
2023/10/14 00:58:23;;;;;;;5.10;0.00;;;13.50;99.90;;;;;;5094065;28;20095;-76
2023/10/14 01:00:56;;;;;;;0.85;0.00;;;13.40;99.90;;;;;;5093704;28;20075;-76
2023/10/14 01:03:27;;;;;;;1.92;0.22;;;13.40;99.90;;;;;;5075163;28;20027;-77
2023/10/14 01:05:55;;;;;;;5.82;0.30;;;13.30;99.90;;;;;;5093165;28;20194;-77
2023/10/14 01:08:22;;;;;;;5.03;0.65;;;13.20;99.90;;;;;;5093267;28;20044;-77
2023/10/14 01:10:49;;;;;;;2.72;0.10;;;13.20;99.90;;;;;;5093242;28;20020;-77
2023/10/14 01:13:22;;;;;;;3.25;0.00;;;13.20;99.90;;;;;;5093160;28;20061;-77
2023/10/14 01:16:01;;;;;;;6.55;0.40;;;13.20;99.90;;;;;;5093942;28;20101;-77
2023/10/14 01:18:26;;;;;;;5.78;0.52;;;13.20;99.90;;;;;;5093744;28;20055;-76
2023/10/14 01:20:52;;;;;;;2.20;0.00;;;;;;;;;;5075103;28;20024;-76
2023/10/14 01:23:18;;;;;;;2.80;0.00;;;13.10;99.90;;;;;;5093096;28;20032;-76
2023/10/14 01:25:47;;;;;;;5.10;0.05;;;13.10;99.90;;;;;;5093021;28;20464;-76
2023/10/14 01:28:15;;;;;;;7.55;0.52;;;13.10;99.90;;;;;;5093118;28;20069;-76
2023/10/14 01:30:55;;;;;;;5.57;0.10;;;13.00;99.90;;;;;;5074985;28;20103;-76
2023/10/14 01:33:25;;;;;;;4.53;0.10;;;12.90;99.90;;;;;;5093123;28;20032;-76
2023/10/14 01:35:53;;;;;;;8.40;0.73;;;12.90;99.90;;;;;;5074873;28;20020;-77
2023/10/14 01:38:19;;;;;;;7.00;0.00;;;12.80;99.90;;;;;;5074995;28;20020;-77
2023/10/14 01:40:49;;;;;;;5.88;0.28;;;12.70;99.90;;;;;;5093160;28;20039;-77
2023/10/14 01:43:15;;;;;;;4.68;0.32;;;12.50;99.90;;;;;;5093045;28;20107;-77
2023/10/14 01:48:44;;;;;;;1.83;0.00;;;;;;;;;;5077916;28;20093;-77
2023/10/14 01:51:09;;;;;;;6.25;0.05;;;12.10;99.90;;;;;;5078800;28;20031;-77
2023/10/14 01:53:38;;;;;;;2.25;0.00;;;12.00;99.90;;;;;;5096829;28;20020;-76
2023/10/14 01:56:06;;;;;;;2.65;0.00;;;14.30;99.90;;;;;;5078489;28;20069;-76
2023/10/14 01:58:36;;;;;;;3.63;0.25;;;11.80;99.90;;;;;;5096723;28;20380;-76
2023/10/14 02:01:15;;;;;;;2.13;0.00;;;11.60;99.90;;;;;;5096768;28;20432;-76
2023/10/14 02:03:51;;;;;;;2.65;0.00;;;11.60;99.90;;;;;;5096547;28;20024;-76
2023/10/14 02:06:43;;;;;;;5.70;0.00;;;11.50;99.90;;;;;;5078117;28;20036;-76
2023/10/14 02:09:10;;;;;;;5.47;0.25;;;11.50;99.90;;;;;;5096468;28;20035;-76
2023/10/14 02:11:35;;;;;;;2.28;0.28;;;11.40;99.90;;;;;;5096540;28;20020;-76
2023/10/14 02:14:06;;;;;;;2.88;0.00;;;11.20;99.90;;;;;;5096493;28;20141;-76
2023/10/14 02:16:40;;;;;;;5.65;0.30;;;11.80;99.90;;;;;;5096809;28;20027;-76
2023/10/14 02:19:21;;;;;;;6.10;0.77;;;11.10;99.90;;;;;;5078180;28;20035;-77
2023/10/14 02:22:02;;;;;;;3.92;0.00;;;11.00;99.90;;;;;;5078260;28;20020;-77
2023/10/14 02:24:28;;;;;;;3.78;0.00;;;10.90;99.90;;;;;;5096366;28;20024;-77
2023/10/14 02:27:03;;;;;;;10.10;0.63;;;10.80;99.90;;;;;;5077935;28;20081;-76
2023/10/14 02:29:29;;;;;;;7.50;0.50;;;10.70;99.90;;;;;;5096320;28;20426;-77
2023/10/14 02:31:54;;;;;;;5.72;0.55;;;10.80;99.90;;;;;;5096204;28;20013;-77
2023/10/14 02:34:20;;;;;;;12.65;0.38;;;10.60;99.90;;;;;;5096163;28;20055;-76
2023/10/14 02:36:48;;;;;;;5.43;0.22;;;10.50;99.90;;;;;;5078186;28;20032;-77
2023/10/14 02:39:17;;;;;;;7.90;0.43;;;10.50;99.90;;;;;;5077917;28;20048;-77
2023/10/14 02:41:44;;;;;;;;;;;10.40;99.90;;;;;;5096369;28;20024;-76
2023/10/14 02:46:43;;;;;;;6.90;0.63;;;10.40;99.90;;;;;;5095728;28;20067;-77
2023/10/14 02:49:14;;;;;;;8.52;0.60;;;10.40;99.90;;;;;;5077739;28;20020;-77
2023/10/14 02:51:43;;;;;;;5.47;0.10;;;10.40;99.90;;;;;;5077636;28;20020;-77
2023/10/14 02:54:26;;;;;;;6.63;0.20;;;10.30;99.90;;;;;;5077899;28;20047;-76
2023/10/14 02:57:12;;;;;;;5.30;0.65;;;10.30;99.90;;;;;;5077498;28;20046;-76
2023/10/14 03:07:27;;;;;;;4.68;0.00;;;10.20;99.90;;;;;;5095689;28;20067;-76
2023/10/14 03:09:58;;;;;;;6.13;0.35;;;10.20;99.90;;;;;;5095802;28;20384;-76
2023/10/14 03:12:24;;;;;;;4.68;0.60;;;10.10;99.90;;;;;;5095355;28;20529;-76
2023/10/14 03:14:52;;;;;;;10.63;0.47;;;10.10;99.90;;;;;;5095234;28;20085;-75
2023/10/14 03:20:34;;;;;;;9.25;0.40;;;10.10;99.90;;;;;;5095753;28;20038;-77
2023/10/14 03:22:48;;;;;;;5.38;0.00;;;10.00;99.90;;;;;;5095353;28;20086;-77
2023/10/14 03:25:17;;;;;;;6.70;0.10;;;10.00;99.90;;;;;;5095605;28;20433;-77
2023/10/14 03:27:42;;;;;;;3.15;0.38;;;10.00;99.90;;;;;;5095473;28;20016;-77
2023/10/14 03:30:11;;;;;;;3.55;0.10;;;10.00;99.90;;;;;;5095581;28;20024;-76
2023/10/14 03:32:37;;;;;;;6.03;0.63;;;10.00;99.90;;;;;;5077599;28;20024;-77
2023/10/14 03:35:11;;;;;;;7.95;0.20;;;10.00;99.90;;;;;;5077792;28;20028;-77
2023/10/14 03:37:40;;;;;;;4.20;0.15;;;10.00;99.90;;;;;;5096075;28;20044;-77
2023/10/14 03:40:37;;;;;;;5.30;0.00;;;10.00;99.90;;;;;;5096054;28;20030;-76
2023/10/14 03:43:05;;;;;;;7.43;0.80;;;10.00;99.90;;;;;;5094832;28;20403;-76
2023/10/14 03:45:31;;;;;;;4.82;0.13;;;10.00;99.90;;;;;;5076652;28;20028;-76
2023/10/14 03:48:00;;;;;;;2.97;0.30;;;10.00;99.90;;;;;;5076766;28;20489;-76
2023/10/14 03:50:26;;;;;;;8.38;0.08;;;10.10;99.90;;;;;;5076905;28;20012;-75
2023/10/14 03:52:54;;;;;;;2.70;0.17;;;10.10;99.90;;;;;;5076402;28;20059;-76
2023/10/14 03:55:26;;;;;;;2.33;0.10;;;10.10;99.90;;;;;;5094647;28;20491;-76
2023/10/14 03:58:04;;;;;;;5.13;0.10;;;10.10;99.90;;;;;;5094813;28;20031;-75
2023/10/14 04:00:39;;;;;;;12.55;0.80;;;10.10;99.90;;;;;;5094514;28;20032;-76
2023/10/14 04:03:12;;;;;;;10.07;0.90;;;10.00;99.90;;;;;;5076146;28;20443;-76
2023/10/14 04:05:52;;;;;;;6.30;0.52;;;10.90;99.90;;;;;;5094227;28;20056;-76
2023/10/14 04:08:39;;;;;;;7.85;0.55;;;9.90;99.90;;;;;;5094273;28;20016;-76
2023/10/14 04:11:14;;;;;;;13.60;0.65;;;9.90;99.90;;;;;;5075103;28;20086;-76
2023/10/14 04:13:52;;;;;;;4.07;0.28;;;9.90;99.90;;;;;;5094118;28;20020;-76
2023/10/14 04:16:27;;;;;;;9.02;0.50;;;9.90;99.90;;;;;;5094657;28;20368;-77
2023/10/14 04:18:59;;;;;;;5.88;0.47;;;9.80;99.90;;;;;;5076337;28;20035;-76
2023/10/14 04:21:35;;;;;;;7.18;0.05;;;9.80;99.90;;;;;;5076460;28;20028;-77
2023/10/14 04:24:26;;;;;;;6.57;0.45;;;9.80;99.90;;;;;;5095257;28;20032;-76
2023/10/14 04:26:58;;;;;;;6.10;0.45;;;9.80;99.90;;;;;;5094669;28;20035;-76
2023/10/14 04:29:39;;;;;;;6.47;0.25;;;9.80;99.90;;;;;;5094372;28;20016;-76
2023/10/14 04:32:14;;;;;;;1.45;0.00;;;9.70;99.90;;;;;;5094394;28;20118;-76
2023/10/14 04:34:42;;;;;;;5.78;1.02;;;9.60;99.90;;;;;;5094265;28;20016;-76
2023/10/14 04:37:08;;;;;;;7.57;0.50;;;9.60;99.90;;;;;;5075827;28;20020;-76
2023/10/14 04:39:42;;;;;;;4.35;0.50;;;9.70;99.90;;;;;;5094125;28;20020;-76
2023/10/14 04:44:45;;;;;;;3.90;0.68;;;9.60;99.90;;;;;;5094710;28;20100;-77
2023/10/14 04:47:19;;;;;;;3.95;0.45;;;9.60;99.90;;;;;;5094299;28;20093;-76
2023/10/14 04:49:51;;;;;;;5.88;0.40;;;9.60;99.90;;;;;;5094165;28;20016;-77
2023/10/14 04:52:18;;;;;;;4.00;0.47;;;9.60;99.90;;;;;;5075354;28;20032;-75
2023/10/14 04:57:40;;;;;;;12.10;1.08;;;9.70;99.90;;;;;;5062361;28;20068;-76
2023/10/14 05:00:08;;;;;;;3.70;0.63;;;9.70;99.90;;;;;;5075782;28;20016;-76
2023/10/14 05:02:38;;;;;;;7.72;0.85;;;9.70;99.90;;;;;;5094416;28;20028;-77
2023/10/14 05:05:07;;;;;;;5.63;0.00;;;9.70;99.90;;;;;;5094447;28;20376;-77
2023/10/14 05:07:35;;;;;;;10.75;0.28;;;9.70;99.90;;;;;;5075636;28;20391;-76
2023/10/14 05:10:08;;;;;;;13.73;0.10;;;9.60;99.90;;;;;;5094381;28;20016;-76
2023/10/14 05:12:40;;;;;;;3.55;0.13;;;9.60;99.90;;;;;;5093859;28;20254;-77
2023/10/14 05:15:21;;;;;;;6.38;0.22;;;9.60;99.90;;;;;;5094137;28;20020;-76
2023/10/14 05:17:52;;;;;;;6.22;0.35;;;9.50;99.90;;;;;;5093755;28;20103;-77
2023/10/14 05:20:29;;;;;;;6.28;0.10;;;9.50;99.90;;;;;;5075866;28;20020;-76
2023/10/14 05:22:56;;;;;;;7.88;0.65;;;9.50;99.90;;;;;;5094951;28;20391;-77
2023/10/14 05:25:27;;;;;;;7.93;0.50;;;9.50;99.90;;;;;;5097803;28;20012;-77
2023/10/14 05:27:58;;;;;;;4.55;0.20;;;9.50;99.90;;;;;;5080113;28;20020;-77
2023/10/14 05:30:24;;;;;;;7.78;0.70;;;9.50;99.90;;;;;;5080151;28;20012;-76
2023/10/14 05:32:53;;;;;;;3.25;0.00;;;9.40;99.90;;;;;;5097831;28;20024;-77
2023/10/14 05:35:22;;;;;;;6.75;0.20;;;9.40;99.90;;;;;;5079169;28;20085;-76
2023/10/14 05:37:47;;;;;;;2.78;0.00;;;9.40;99.90;;;;;;5097437;28;20016;-76
2023/10/14 05:40:13;;;;;;;5.47;1.27;;;9.40;99.90;;;;;;5097489;28;20020;-76
2023/10/14 05:42:48;;;;;;;7.80;0.75;;;9.40;99.90;;;;;;5079178;28;20020;-76
2023/10/14 05:45:14;;;;;;;9.50;0.45;;;9.30;99.90;;;;;;5096993;28;20027;-76
2023/10/14 05:47:43;;;;;;;4.93;0.35;;;9.40;99.90;;;;;;5097133;28;20024;-77
2023/10/14 05:50:14;;;;;;;4.03;0.28;;;9.40;99.90;;;;;;5097455;28;20471;-77
2023/10/14 05:52:41;;;;;;;5.30;1.38;;;9.30;99.90;;;;;;5079301;28;20070;-76
2023/10/14 05:55:09;;;;;;;19.75;0.28;;;9.30;99.90;;;;;;5097183;28;20107;-76
2023/10/14 05:57:39;;;;;;;7.47;0.00;;;9.30;99.90;;;;;;5097643;28;20024;-76
2023/10/14 06:00:20;;;;;;;1.38;0.05;;;9.20;99.90;;;;;;5097177;28;20028;-76
2023/10/14 06:02:46;;;;;;;8.38;0.20;;;9.20;99.90;;;;;;5078843;28;20051;-76
2023/10/14 06:05:12;;;;;;;7.35;0.20;;;9.20;99.90;;;;;;5078652;28;20059;-76
2023/10/14 06:07:39;;;;;;;9.23;0.70;;;9.20;99.90;;;;;;5097056;28;20488;-76
2023/10/14 06:10:10;;;;;;;3.30;0.20;;;9.20;99.90;;;;;;5078249;28;20476;-77
2023/10/14 06:12:35;;;;;;;6.97;0.00;;;9.30;99.90;;;;;;5078423;28;20436;-76
2023/10/14 06:15:01;;;;;;;5.82;0.32;;;9.30;99.90;;;;;;5095930;28;20103;-77
2023/10/14 06:17:26;;;;;;;5.70;0.40;;;9.30;99.90;;;;;;5078623;28;20089;-76
2023/10/14 06:19:53;;;;;;;4.90;0.20;;;9.20;99.90;;;;;;5077335;28;20042;-76
2023/10/14 06:22:18;;;;;;;4.70;0.57;;;9.20;99.90;;;;;;5097132;28;20020;-76
2023/10/14 06:24:44;;;;;;;8.65;0.55;;;9.30;99.90;;;;;;5096487;28;20047;-77
2023/10/14 06:27:20;;;;;;;5.50;0.98;;;9.20;99.90;;;;;;5096723;28;20111;-77
2023/10/14 06:29:47;;;;;;;9.25;0.82;;;10.10;99.90;;;;;;5078280;28;20020;-76
2023/10/14 06:32:13;;;;;;;4.00;0.00;;;9.30;99.90;;;;;;5096955;28;20054;-77
2023/10/14 06:34:39;;;;;;;10.23;0.90;;;9.30;99.90;;;;;;5095310;28;20016;-77
2023/10/14 06:37:07;;;;;;;6.82;0.32;;;9.30;99.90;;;;;;5096504;28;20020;-75
2023/10/14 06:39:39;;;;;;;5.93;0.45;;;9.30;99.90;;;;;;5077881;28;20024;-75
2023/10/14 06:42:05;;;;;;;6.45;0.20;;;9.30;99.90;;;;;;5077836;28;20518;-75
2023/10/14 06:44:32;;;;;;;7.65;1.00;;;9.30;99.90;;;;;;5095972;28;20475;-75
2023/10/14 06:47:02;;;;;;;8.45;0.30;;;9.40;99.90;;;;;;5096301;28;20072;-75
2023/10/14 06:49:32;;;;;;;8.65;0.40;;;9.50;99.90;;;;;;5096175;28;20053;-75
2023/10/14 06:52:01;;;;;;;3.60;0.55;;;9.50;99.90;;;;;;5078036;28;20016;-75
2023/10/14 06:54:26;;;;;;;5.93;0.30;;;9.60;99.90;;;;;;5095763;28;20032;-75
2023/10/14 06:56:53;;;;;;;9.38;0.47;;;9.70;99.90;;;;;;5095644;28;20093;-75
2023/10/14 06:59:22;;;;;;;7.68;0.40;;;9.90;99.90;;;;;;5095735;28;20395;-75
2023/10/14 07:01:47;;;;;;;;;;;9.90;99.90;;;;;;5096411;28;20047;-75
2023/10/14 07:04:13;;;;;;;8.88;1.02;;;10.00;99.90;;;;;;5095561;28;19904;-75
2023/10/14 07:06:39;;;;;;;7.65;0.68;;;10.20;99.90;;;;;;5095389;28;20020;-75
2023/10/14 07:09:16;;;;;;;5.15;0.28;;;10.30;99.90;;;;;;5077360;28;20016;-74
2023/10/14 07:11:45;;;;;;;4.45;0.30;;;10.50;99.90;;;;;;5096150;28;20020;-76
2023/10/14 07:14:11;;;;;;;10.77;0.68;;;10.70;99.90;;;;;;5095507;28;20095;-75
2023/10/14 07:16:37;;;;;;;7.47;0.35;;;10.90;99.90;;;;;;5077294;28;20066;-75
2023/10/14 07:19:02;;;;;;;9.23;0.20;;;11.10;99.90;;;;;;5095387;28;20034;-75
2023/10/14 07:21:29;;;;;;;11.70;0.10;;;11.20;99.90;;;;;;5077126;28;20550;-75
2023/10/14 07:23:55;;;;;;;9.63;0.63;;;11.30;99.90;;;;;;5095172;28;20055;-74
2023/10/14 07:26:22;;;;;;;9.90;0.30;;;11.40;99.90;;;;;;5094920;28;20020;-75
2023/10/14 07:28:51;;;;;;;9.15;0.10;;;11.40;99.90;;;;;;5095138;28;20372;-76
2023/10/14 07:31:17;;;;;;;7.60;0.65;;;11.50;99.90;;;;;;5095719;28;20103;-75
2023/10/14 07:33:43;;;;;;;8.35;0.35;;;11.50;99.90;;;;;;5095071;28;20543;-75
2023/10/14 07:36:11;;;;;;;3.25;0.08;;;11.50;99.90;;;;;;5094870;28;20487;-75
2023/10/14 07:38:37;;;;;;;11.27;0.83;;;11.60;99.90;;;;;;5094894;28;20020;-75
2023/10/14 07:41:06;;;;;;;3.65;0.30;;;11.70;99.90;;;;;;5076694;28;20020;-75
2023/10/14 07:43:33;;;;;;;5.53;0.30;;;11.80;99.90;;;;;;5095360;28;20051;-75
2023/10/14 07:46:00;;;;;;;4.63;0.10;;;11.90;99.90;;;;;;5076196;28;20016;-74
2023/10/14 07:48:26;;;;;;;4.95;0.10;;;11.90;99.90;;;;;;5076450;28;20047;-75
2023/10/14 07:50:56;;;;;;;8.50;0.30;;;12.10;99.90;;;;;;5094604;28;20028;-75
2023/10/14 07:53:25;;;;;;;6.93;0.77;;;12.30;99.90;;;;;;5094577;28;20012;-75
2023/10/14 07:55:56;;;;;;;8.85;0.30;;;12.30;99.90;;;;;;5094631;28;20043;-75
2023/10/14 07:58:26;;;;;;;10.00;0.17;;;12.40;99.90;;;;;;5095110;28;20440;-75
2023/10/14 08:00:53;;;;;;;5.30;0.17;;;12.40;99.90;;;;;;5076336;28;20055;-75
2023/10/14 08:03:22;;;;;;;10.52;1.10;;;12.20;99.90;;;;;;5076166;28;20031;-75
2023/10/14 08:06:05;;;;;;;4.90;0.10;;;12.20;99.90;;;;;;5094266;28;20483;-75
2023/10/14 08:08:31;;;;;;;9.55;1.85;;;12.20;99.90;;;;;;5094980;28;20048;-75
2023/10/14 08:11:01;;;;;;;9.23;0.40;;;12.20;99.90;;;;;;5076134;28;20028;-75
2023/10/14 08:13:31;;;;;;;6.55;1.00;;;12.30;99.90;;;;;;5094193;28;20509;-75
2023/10/14 08:15:57;;;;;;;14.25;0.55;;;12.50;99.90;;;;;;5094006;28;20028;-75
2023/10/14 08:18:24;;;;;;;7.60;0.13;;;12.70;99.90;;;;;;5094122;28;20052;-75
2023/10/14 08:20:53;;;;;;;9.38;0.52;;;12.80;99.90;;;;;;5094093;28;20028;-75
2023/10/14 08:23:22;;;;;;;7.63;0.10;;;12.80;99.90;;;;;;5093957;28;20024;-74
2023/10/14 08:25:53;;;;;;;7.10;0.70;;;12.90;99.90;;;;;;5093825;28;20111;-75
2023/10/14 08:28:27;;;;;;;6.65;0.03;;;13.00;99.90;;;;;;5075902;28;20012;-74
2023/10/14 08:30:53;;;;;;;7.22;0.20;;;13.20;99.90;;;;;;5094523;28;20418;-75
2023/10/14 08:33:24;;;;;;;8.57;0.10;;;13.50;99.90;;;;;;5093833;28;20028;-75
2023/10/14 08:35:51;;;;;;;11.52;0.77;;;13.60;99.90;;;;;;5093717;28;20487;-75
2023/10/14 08:38:21;;;;;;;5.28;0.30;;;13.60;99.90;;;;;;5093810;28;20028;-75
2023/10/14 08:40:51;;;;;;;6.53;0.05;;;13.70;99.90;;;;;;5076116;28;20490;-75
2023/10/14 08:43:22;;;;;;;5.85;0.35;;;13.70;99.90;;;;;;5093647;28;20032;-76
2023/10/14 08:45:48;;;;;;;8.80;0.43;;;13.70;99.90;;;;;;5075493;28;20483;-76
2023/10/14 08:48:18;;;;;;;14.80;1.23;;;13.70;99.90;;;;;;5093640;28;20017;-75
2023/10/14 08:50:45;;;;;;;6.07;0.20;;;13.90;99.90;;;;;;5075551;28;20437;-76
2023/10/14 08:53:13;;;;;;;7.65;0.13;;;13.90;99.90;;;;;;5075404;28;20027;-76
2023/10/14 08:55:39;;;;;;;8.27;0.30;;;14.50;99.90;;;;;;5093322;28;20028;-76
2023/10/14 08:58:07;;;;;;;9.38;0.28;;;14.10;99.90;;;;;;5074958;28;20043;-76
2023/10/14 09:00:37;;;;;;;7.18;0.38;;;14.20;99.90;;;;;;5094084;28;20052;-76
2023/10/14 09:03:07;;;;;;;4.95;0.52;;;14.10;99.90;;;;;;5075337;28;20024;-76
2023/10/14 09:05:44;;;;;;;6.38;0.05;;;14.10;99.90;;;;;;5093312;28;20052;-76
2023/10/14 09:08:12;;;;;;;4.13;0.32;;;13.80;99.90;;;;;;5075358;28;20024;-76
2023/10/14 09:10:39;;;;;;;2.22;0.80;;;13.70;99.90;;;;;;5093372;28;20099;-76
2023/10/14 09:13:08;;;;;;;7.47;0.30;;;13.60;99.90;;;;;;5093355;28;20058;-76
2023/10/14 09:15:39;;;;;;;4.80;0.00;;;13.60;99.90;;;;;;5093283;28;20044;-76
2023/10/14 09:18:27;;;;;;;6.13;0.20;;;13.50;99.90;;;;;;5093299;28;20089;-75
2023/10/14 09:20:56;;;;;;;2.33;0.05;;;13.40;99.90;;;;;;5093266;28;20077;-75
2023/10/14 09:23:40;;;;;;;3.55;0.10;;;13.20;99.90;;;;;;5093469;28;20028;-75
2023/10/14 09:26:06;;;;;;;14.52;1.50;;;13.20;99.90;;;;;;5093081;28;20028;-76
2023/10/14 09:28:34;;;;;;;8.48;0.90;;;13.20;99.90;;;;;;5093685;28;20012;-76
2023/10/14 09:31:02;;;;;;;6.57;0.10;;;13.10;99.90;;;;;;5093043;28;20054;-75
2023/10/14 09:33:31;;;;;;;9.27;0.52;;;13.00;99.90;;;;;;5093092;28;20055;-76
2023/10/14 09:36:05;;;;;;;9.70;0.20;;;13.30;99.90;;;;;;5092989;28;20054;-76
2023/10/14 09:38:34;;;;;;;6.60;0.25;;;12.80;99.90;;;;;;5075016;28;20024;-76
2023/10/14 09:41:03;;;;;;;;;;;12.70;99.90;;;;;;5075215;28;20062;-76
2023/10/14 09:43:30;;;;;;;12.68;0.40;;;12.50;99.90;;;;;;5092915;28;19904;-76
2023/10/14 09:45:59;;;;;;;9.70;0.75;;;12.50;99.90;;;;;;5092864;28;20548;-75
2023/10/14 09:48:27;;;;;;;9.45;0.85;;;12.40;99.90;;;;;;5092905;28;20023;-75
2023/10/14 09:50:54;;;;;;;9.30;1.08;;;12.50;99.90;;;;;;5074766;28;20024;-75
2023/10/14 09:53:27;;;;;;;7.88;0.22;;;12.40;99.90;;;;;;5093434;28;20016;-75
2023/10/14 09:55:54;;;;;;;8.90;0.55;;;12.40;99.90;;;;;;5092730;28;20028;-75
2023/10/14 09:58:23;;;;;;;8.95;0.68;;;12.40;99.90;;;;;;5092923;28;20035;-75
2023/10/14 10:00:49;;;;;;;;;;;12.40;99.90;;;;;;5075144;28;20074;-75
2023/10/14 10:03:15;;;;;;;4.53;0.30;;;12.40;99.90;;;;;;5074749;28;19908;-75
2023/10/14 10:05:54;;;;;;;6.38;0.15;;;12.50;99.90;;;;;;5092613;28;20024;-76
2023/10/14 10:08:46;;;;;;;5.65;0.05;;;12.60;99.90;;;;;;5093113;28;20069;-76
2023/10/14 10:11:12;;;;;;;7.70;0.63;;;13.00;99.90;;;;;;5096560;28;20028;-75
2023/10/14 10:13:41;;;;;;;3.65;0.08;;;13.60;99.90;;;;;;5096480;28;20091;-75
2023/10/14 10:16:07;;;;;;;3.72;0.40;;;14.20;99.90;;;;;;5096343;28;20484;-75
2023/10/14 10:18:58;;;;;;;8.68;0.38;;;14.70;99.90;;;;;;5096937;28;20035;-75
2023/10/14 10:21:31;;;;;;;7.72;0.80;;;14.80;99.90;;;;;;5078199;28;20050;-76
2023/10/14 10:24:24;;;;;;;5.07;0.80;;;14.20;99.90;;;;;;5096326;28;20077;-74
2023/10/14 10:27:03;;;;;;;4.63;0.10;;;13.70;99.90;;;;;;5089025;28;20089;-75
2023/10/14 10:29:33;;;;;;;8.52;0.63;;;13.30;99.90;;;;;;5078010;28;20399;-76
2023/10/14 10:32:09;;;;;;;7.93;0.47;;;13.10;99.90;;;;;;5096156;28;20085;-75
2023/10/14 10:34:54;;;;;;;8.05;0.65;;;12.80;99.90;;;;;;5096127;28;20031;-76
2023/10/14 10:37:21;;;;;;;8.02;0.63;;;12.60;99.90;;;;;;5096486;28;20028;-74
2023/10/14 10:39:50;;;;;;;7.07;0.17;;;12.40;99.90;;;;;;5095996;28;20111;-75
2023/10/14 10:42:16;;;;;;;5.28;0.65;;;12.30;99.90;;;;;;5095956;28;20380;-75
2023/10/14 10:44:43;;;;;;;4.78;0.43;;;12.10;99.90;;;;;;5095806;28;20016;-75
2023/10/14 10:47:12;;;;;;;3.35;0.20;;;12.10;99.90;;;;;;5077697;28;20028;-75
2023/10/14 10:50:14;;;;;;;3.00;0.20;;;11.90;99.90;;;;;;5095817;28;20024;-75
2023/10/14 10:52:41;;;;;;;9.07;0.15;;;11.80;99.90;;;;;;5085580;28;20119;-75
2023/10/14 10:55:07;;;;;;;4.93;0.35;;;11.80;99.90;;;;;;5095892;28;20118;-74
2023/10/14 10:57:33;;;;;;;9.75;0.40;;;11.70;99.90;;;;;;5096194;28;20104;-75
2023/10/14 10:59:59;;;;;;;7.35;0.30;;;11.90;99.90;;;;;;5095576;28;20107;-75
2023/10/14 11:02:24;;;;;;;8.38;0.10;;;11.60;99.90;;;;;;5096204;28;20480;-75
2023/10/14 11:04:51;;;;;;;9.63;0.52;;;11.70;99.90;;;;;;5095468;28;20383;-75
2023/10/14 11:07:19;;;;;;;9.65;0.63;;;12.10;99.90;;;;;;5095342;28;20549;-75
2023/10/14 11:09:44;;;;;;;5.68;0.13;;;12.20;99.90;;;;;;5095936;28;20463;-75
2023/10/14 11:12:11;;;;;;;11.50;0.60;;;13.00;99.90;;;;;;5095415;28;20028;-75
2023/10/14 11:14:37;;;;;;;6.45;0.38;;;;;;;;;;5077139;28;20479;-75
2023/10/14 11:17:04;;;;;;;10.23;1.13;;;13.50;99.90;;;;;;5095772;28;20498;-75
2023/10/14 11:19:32;;;;;;;5.65;0.10;;;13.80;99.90;;;;;;5095238;28;20025;-75
2023/10/14 11:21:58;;;;;;;9.20;0.32;;;14.20;99.90;;;;;;5094661;28;20024;-75
2023/10/14 11:24:25;;;;;;;10.55;0.52;;;14.40;99.90;;;;;;5095106;28;20052;-75
2023/10/14 11:26:51;;;;;;;2.55;0.15;;;14.90;99.90;;;;;;5095037;28;20028;-75
2023/10/14 11:29:17;;;;;;;4.10;0.28;;;15.10;99.90;;;;;;5076957;28;20028;-74
2023/10/14 11:31:44;;;;;;;5.60;0.00;;;14.90;99.90;;;;;;5095616;28;20394;-75
2023/10/14 11:34:13;;;;;;;6.30;0.65;;;14.60;99.90;;;;;;5094932;28;20016;-75
2023/10/14 11:36:42;;;;;;;4.45;0.00;;;14.20;99.90;;;;;;5094776;28;20035;-75
2023/10/14 11:39:13;;;;;;;8.73;0.22;;;13.80;99.90;;;;;;5094798;28;20028;-74
2023/10/14 11:41:41;;;;;;;4.93;0.20;;;13.70;99.90;;;;;;5094760;28;20516;-75
2023/10/14 11:44:07;;;;;;;8.95;1.15;;;13.80;99.90;;;;;;5095328;28;20375;-75
2023/10/14 11:46:38;;;;;;;5.68;0.00;;;15.00;99.90;;;;;;5076383;28;20024;-75
2023/10/14 11:49:11;;;;;;;4.55;0.20;;;14.40;99.90;;;;;;5076578;28;20476;-75
2023/10/14 11:51:43;;;;;;;9.07;0.38;;;14.60;99.90;;;;;;5094644;28;20364;-75
2023/10/14 11:54:13;;;;;;;3.30;0.25;;;14.80;99.90;;;;;;5094615;28;20016;-76
2023/10/14 11:56:42;;;;;;;2.05;0.28;;;14.70;99.90;;;;;;5076149;28;20040;-75
2023/10/14 11:59:13;;;;;;;5.57;0.05;;;14.70;99.90;;;;;;5094447;28;20073;-75
2023/10/14 12:01:44;;;;;;;3.30;0.08;;;15.00;99.90;;;;;;5078407;28;20024;-79
2023/10/14 12:04:11;;;;;;;11.50;1.10;;;15.40;99.90;;;;;;5081388;28;20506;-79
2023/10/14 12:06:36;;;;;;;2.47;0.00;;;15.50;99.90;;;;;;5081106;28;20016;-79
2023/10/14 12:09:06;;;;;;;3.58;0.10;;;15.40;99.90;;;;;;5096635;28;20364;-79
2023/10/14 12:11:41;;;;;;;2.20;0.00;;;15.10;99.90;;;;;;5097983;28;20055;-78
2023/10/14 12:14:07;;;;;;;4.45;0.22;;;14.80;99.90;;;;;;5080316;28;20050;-78
2023/10/14 12:16:33;;;;;;;3.70;0.00;;;14.70;99.90;;;;;;5098385;28;20088;-78
2023/10/14 12:18:59;;;;;;;7.97;0.17;;;14.70;99.90;;;;;;5079802;28;20062;-78
2023/10/14 12:21:25;;;;;;;3.35;0.08;;;15.50;99.90;;;;;;5079096;28;20088;-78
2023/10/14 12:23:51;;;;;;;6.13;0.43;;;15.70;99.90;;;;;;5079116;28;20024;-78
2023/10/14 12:26:17;;;;;;;4.22;0.00;;;16.20;99.90;;;;;;5078763;28;20162;-78
2023/10/14 12:28:43;;;;;;;2.85;0.20;;;16.70;99.90;;;;;;5097241;28;20487;-78
2023/10/14 12:31:12;;;;;;;0.77;0.00;;;16.90;99.90;;;;;;5096356;28;20364;-75
2023/10/14 12:33:39;;;;;;;9.75;0.60;;;16.60;99.90;;;;;;5092982;28;20027;-76
2023/10/14 12:36:11;;;;;;;7.43;0.10;;;16.60;99.90;;;;;;5075622;28;20484;-75
2023/10/14 12:38:44;;;;;;;4.35;0.00;;;15.80;99.90;;;;;;5075547;28;20028;-75
2023/10/14 12:41:13;;;;;;;10.57;0.60;;;15.40;99.90;;;;;;5093795;28;20028;-75
2023/10/14 12:43:41;;;;;;;;;;;15.60;99.90;;;;;;5093999;28;20046;-75
2023/10/14 12:46:14;;;;;;;5.90;0.40;;;15.60;99.90;;;;;;5075441;28;19929;-75
2023/10/14 12:48:41;;;;;;;2.35;0.35;;;16.00;99.90;;;;;;5093613;28;20020;-75
2023/10/14 12:51:11;;;;;;;10.02;1.05;;;15.00;99.90;;;;;;5093498;28;20012;-75
2023/10/14 12:53:45;;;;;;;3.72;0.00;;;15.00;99.90;;;;;;5075420;28;20498;-75
2023/10/14 12:56:15;;;;;;;4.50;0.10;;;14.70;99.90;;;;;;5075339;28;20036;-75
2023/10/14 12:58:43;;;;;;;3.75;0.40;;;14.40;99.90;;;;;;5093807;28;20376;-75
2023/10/14 13:01:13;;;;;;;3.45;0.08;;;14.10;99.90;;;;;;5093898;28;20024;-75
2023/10/14 13:03:41;;;;;;;3.33;0.00;;;14.00;99.90;;;;;;5075312;28;20031;-75
2023/10/14 13:06:07;;;;;;;4.93;0.32;;;13.80;99.90;;;;;;5093293;28;20483;-75
2023/10/14 13:08:33;;;;;;;2.40;0.00;;;14.20;99.90;;;;;;5093327;28;20025;-75
2023/10/14 13:10:59;;;;;;;3.83;0.20;;;14.20;99.90;;;;;;5093325;28;20407;-75
2023/10/14 13:13:25;;;;;;;6.25;0.25;;;14.60;99.90;;;;;;5093242;28;20020;-75
2023/10/14 13:15:53;;;;;;;6.00;0.38;;;14.80;99.90;;;;;;5093229;28;20043;-76
2023/10/14 13:18:19;;;;;;;5.40;0.38;;;15.20;99.90;;;;;;5093806;28;20074;-75
2023/10/14 13:20:48;;;;;;;3.13;0.00;;;15.60;99.90;;;;;;5093225;28;20036;-76
2023/10/14 13:23:14;;;;;;;1.40;0.00;;;16.00;99.90;;;;;;5093785;28;20514;-76
2023/10/14 13:25:40;;;;;;;4.32;0.57;;;16.10;99.90;;;;;;5092981;28;20422;-75